createdAt,value
2017-07-27T00:00:49.530Z,99.9
2017-07-27T00:01:57.007Z,99.6
2017-07-27T00:03:04.487Z,99.9
2017-07-27T00:04:11.312Z,99.9
2017-07-27T00:05:18.788Z,99.9
2017-07-27T00:06:26.362Z,99.9
2017-07-27T00:07:33.835Z,99.9
2017-07-27T00:08:40.992Z,99.9
2017-07-27T00:09:48.467Z,99.9
2017-07-27T00:10:55.945Z,99.9
2017-07-27T00:12:03.401Z,99.9
2017-07-27T00:13:10.878Z,99.9
2017-07-27T00:14:18.354Z,99.9
2017-07-27T00:15:25.824Z,99.9
2017-07-27T00:16:33.303Z,99.9
2017-07-27T00:17:41.077Z,99.9
2017-07-27T00:18:48.551Z,99.9
2017-07-27T00:19:56.026Z,99.9
2017-07-27T00:21:03.509Z,99.9
2017-07-27T00:22:10.982Z,99.9
2017-07-27T00:23:18.712Z,99.9
2017-07-27T00:24:26.189Z,99.9
2017-07-27T00:25:33.676Z,99.9
2017-07-27T00:26:41.152Z,99.9
2017-07-27T00:27:48.296Z,99.9
2017-07-27T00:28:56.030Z,99.9
2017-07-27T00:30:03.506Z,99.9
2017-07-27T00:31:10.991Z,99.9
2017-07-27T00:32:18.473Z,99.9
2017-07-27T00:33:25.954Z,99.9
2017-07-27T00:34:33.532Z,99.9
2017-07-27T00:35:41.010Z,99.9
2017-07-27T00:36:48.486Z,99.9
2017-07-27T00:37:55.965Z,99.9
2017-07-27T00:39:03.118Z,99.9
2017-07-27T00:40:10.692Z,99.9
2017-07-27T00:41:18.166Z,99.9
2017-07-27T00:42:25.644Z,99.9
2017-07-27T00:43:33.124Z,99.9
2017-07-27T00:44:40.596Z,99.9
2017-07-27T00:45:48.373Z,99.9
2017-07-27T00:46:55.854Z,99.9
2017-07-27T00:48:03.334Z,99.9
2017-07-27T00:49:10.806Z,99.9
2017-07-27T00:50:17.949Z,99.9
2017-07-27T00:51:25.911Z,99.9
2017-07-27T00:52:33.398Z,99.9
2017-07-27T00:53:40.889Z,99.9
2017-07-27T00:54:48.030Z,99.9
2017-07-27T00:55:55.509Z,99.9
2017-07-27T00:57:03.237Z,99.9
2017-07-27T00:58:10.713Z,99.9
2017-07-27T00:59:18.192Z,99.9
2017-07-27T01:00:25.670Z,99.9
2017-07-27T01:01:33.146Z,99.9
2017-07-27T01:02:40.872Z,99.9
2017-07-27T01:03:48.349Z,99.9
2017-07-27T01:04:55.829Z,99.9
2017-07-27T01:06:03.303Z,99.9
2017-07-27T01:07:10.793Z,99.9
2017-07-27T01:08:18.520Z,99.9
2017-07-27T01:09:25.996Z,99.9
2017-07-27T01:10:33.465Z,99.9
2017-07-27T01:11:40.946Z,99.9
2017-07-27T01:12:48.087Z,99.9
2017-07-27T01:13:55.811Z,99.9
2017-07-27T01:15:03.293Z,99.9
2017-07-27T01:16:10.770Z,99.9
2017-07-27T01:17:17.915Z,99.9
2017-07-27T01:18:25.394Z,99.9
2017-07-27T01:19:33.118Z,99.9
2017-07-27T01:20:40.602Z,99.9
2017-07-27T01:21:48.087Z,99.9
2017-07-27T01:22:55.565Z,99.9
2017-07-27T01:24:02.382Z,99.9
2017-07-27T01:25:10.113Z,99.9
2017-07-27T01:26:17.595Z,99.9
2017-07-27T01:27:25.077Z,99.9
2017-07-27T01:28:32.551Z,99.9
2017-07-27T01:29:39.694Z,99.9
2017-07-27T01:30:47.472Z,99.9
2017-07-27T01:31:54.961Z,99.9
2017-07-27T01:33:02.112Z,99.9
2017-07-27T01:34:09.593Z,99.9
2017-07-27T01:35:17.068Z,99.9
2017-07-27T01:36:24.798Z,99.9
2017-07-27T01:37:32.272Z,99.9
2017-07-27T01:38:39.750Z,99.9
2017-07-27T01:39:47.220Z,99.9
2017-07-27T01:40:54.695Z,99.9
2017-07-27T01:42:02.275Z,99.9
2017-07-27T01:43:09.422Z,99.9
2017-07-27T01:44:16.899Z,99.9
2017-07-27T01:45:24.414Z,99.9
2017-07-27T01:46:31.890Z,99.9
2017-07-27T01:47:39.490Z,99.9
2017-07-27T01:48:46.974Z,99.9
2017-07-27T01:49:54.452Z,99.9
2017-07-27T01:51:01.936Z,99.9
2017-07-27T01:52:09.415Z,99.9
2017-07-27T01:53:17.195Z,99.9
2017-07-27T01:54:24.677Z,99.9
2017-07-27T01:55:32.165Z,99.9
2017-07-27T01:56:39.644Z,99.9
2017-07-27T01:57:47.122Z,99.9
2017-07-27T01:58:54.902Z,99.9
2017-07-27T02:00:02.377Z,99.9
2017-07-27T02:01:09.852Z,99.9
2017-07-27T02:02:17.330Z,99.9
2017-07-27T02:03:24.819Z,99.9
2017-07-27T02:04:32.544Z,99.9
2017-07-27T02:05:40.025Z,99.9
2017-07-27T02:06:47.512Z,99.9
2017-07-27T02:07:54.657Z,99.9
2017-07-27T02:09:02.147Z,99.9
2017-07-27T02:10:09.876Z,99.9
2017-07-27T02:11:17.355Z,99.9
2017-07-27T02:12:24.834Z,99.9
2017-07-27T02:13:32.308Z,99.9
2017-07-27T02:14:39.779Z,99.9
2017-07-27T02:15:47.561Z,99.9
2017-07-27T02:16:55.036Z,99.9
2017-07-27T02:18:02.515Z,99.9
2017-07-27T02:19:09.987Z,99.9
2017-07-27T02:20:17.467Z,99.9
2017-07-27T02:21:25.197Z,99.9
2017-07-27T02:22:32.675Z,99.9
2017-07-27T02:23:40.147Z,99.9
2017-07-27T02:24:47.639Z,99.9
2017-07-27T02:25:55.114Z,99.9
2017-07-27T02:27:02.850Z,99.9
2017-07-27T02:28:10.332Z,99.9
2017-07-27T02:29:17.476Z,99.9
2017-07-27T02:30:24.976Z,99.9
2017-07-27T02:31:32.451Z,99.9
2017-07-27T02:32:40.169Z,99.9
2017-07-27T02:33:47.667Z,99.9
2017-07-27T02:34:54.817Z,99.9
2017-07-27T02:36:02.299Z,99.9
2017-07-27T02:37:09.774Z,99.9
2017-07-27T02:38:17.226Z,99.9
2017-07-27T02:39:24.698Z,99.9
2017-07-27T02:40:31.848Z,99.9
2017-07-27T02:41:39.327Z,99.9
2017-07-27T02:42:46.805Z,99.9
2017-07-27T02:43:54.385Z,99.9
2017-07-27T02:45:01.864Z,99.9
2017-07-27T02:46:09.337Z,99.9
2017-07-27T02:47:16.810Z,99.9
2017-07-27T02:48:24.316Z,99.9
2017-07-27T02:49:32.042Z,99.9
2017-07-27T02:50:39.519Z,99.9
2017-07-27T02:51:46.998Z,99.9
2017-07-27T02:52:54.474Z,99.9
2017-07-27T02:54:01.956Z,99.9
2017-07-27T02:55:09.732Z,99.9
2017-07-27T02:56:17.210Z,99.9
2017-07-27T02:57:24.689Z,99.9
2017-07-27T02:58:32.167Z,99.9
2017-07-27T02:59:39.641Z,99.9
2017-07-27T03:00:47.419Z,99.9
2017-07-27T03:01:54.571Z,99.9
2017-07-27T03:03:02.053Z,99.9
2017-07-27T03:04:09.533Z,99.9
2017-07-27T03:05:17.008Z,99.9
2017-07-27T03:06:24.455Z,99.9
2017-07-27T03:07:31.940Z,99.9
2017-07-27T03:08:39.083Z,99.9
2017-07-27T03:09:46.565Z,99.9
2017-07-27T03:10:53.708Z,99.9
2017-07-27T03:12:01.489Z,99.9
2017-07-27T03:13:08.966Z,99.9
2017-07-27T03:14:16.441Z,99.9
2017-07-27T03:15:23.923Z,99.9
2017-07-27T03:16:31.074Z,99.9
2017-07-27T03:17:38.328Z,99.9
2017-07-27T03:18:45.814Z,99.9
2017-07-27T03:19:52.960Z,99.9
2017-07-27T03:21:00.434Z,99.9
2017-07-27T03:22:07.914Z,99.9
2017-07-27T03:23:15.689Z,99.9
2017-07-27T03:24:22.839Z,99.9
2017-07-27T03:25:30.320Z,99.9
2017-07-27T03:26:37.796Z,99.9
2017-07-27T03:27:45.274Z,99.9
2017-07-27T03:28:53.002Z,99.9
2017-07-27T03:30:00.479Z,99.9
2017-07-27T03:31:07.631Z,99.9
2017-07-27T03:32:15.106Z,99.9
2017-07-27T03:33:22.246Z,99.9
2017-07-27T03:34:29.971Z,99.9
2017-07-27T03:35:37.448Z,99.9
2017-07-27T03:36:44.928Z,99.9
2017-07-27T03:37:52.403Z,99.9
2017-07-27T03:38:59.886Z,99.9
2017-07-27T03:40:07.466Z,99.9
2017-07-27T03:41:14.937Z,99.9
2017-07-27T03:42:22.412Z,99.9
2017-07-27T03:43:29.890Z,99.9
2017-07-27T03:44:37.367Z,99.9
2017-07-27T03:45:45.090Z,99.9
2017-07-27T03:46:52.574Z,99.9
2017-07-27T03:48:00.048Z,99.9
2017-07-27T03:49:07.525Z,99.9
2017-07-27T03:50:15.005Z,99.9
2017-07-27T03:51:22.482Z,99.9
2017-07-27T03:52:29.974Z,99.9
2017-07-27T03:53:37.452Z,99.9
2017-07-27T03:54:44.939Z,99.9
2017-07-27T03:55:52.411Z,99.9
2017-07-27T03:57:00.189Z,99.9
2017-07-27T03:58:07.336Z,99.9
2017-07-27T03:59:14.817Z,99.9
2017-07-27T04:00:22.295Z,99.9
2017-07-27T04:01:30.379Z,99.9
2017-07-27T04:02:38.117Z,99.9
2017-07-27T04:03:45.594Z,99.9
2017-07-27T04:04:53.075Z,99.9
2017-07-27T04:06:00.220Z,99.9
2017-07-27T04:07:07.370Z,99.9
2017-07-27T04:08:15.103Z,99.9
2017-07-27T04:09:22.580Z,99.9
2017-07-27T04:10:30.057Z,99.9
2017-07-27T04:11:37.541Z,99.9
2017-07-27T04:12:45.018Z,99.9
2017-07-27T04:13:52.744Z,99.9
2017-07-27T04:15:00.225Z,99.9
2017-07-27T04:16:07.698Z,99.9
2017-07-27T04:17:15.177Z,99.9
2017-07-27T04:18:22.659Z,99.9
2017-07-27T04:19:30.427Z,99.9
2017-07-27T04:20:37.908Z,99.9
2017-07-27T04:21:45.380Z,99.9
2017-07-27T04:22:52.850Z,99.9
2017-07-27T04:24:00.332Z,99.9
2017-07-27T04:25:07.910Z,99.9
2017-07-27T04:26:15.381Z,99.9
2017-07-27T04:27:22.856Z,99.9
2017-07-27T04:28:30.005Z,99.9
2017-07-27T04:29:37.480Z,99.9
2017-07-27T04:30:44.959Z,99.9
2017-07-27T04:31:52.437Z,99.9
2017-07-27T04:32:59.914Z,99.9
2017-07-27T04:34:07.384Z,99.9
2017-07-27T04:35:14.867Z,99.9
2017-07-27T04:36:22.595Z,99.9
2017-07-27T04:37:30.071Z,99.9
2017-07-27T04:38:37.215Z,99.9
2017-07-27T04:39:44.686Z,99.9
2017-07-27T04:40:52.162Z,99.9
2017-07-27T04:41:59.892Z,99.9
2017-07-27T04:43:07.391Z,99.9
2017-07-27T04:44:14.865Z,99.9
2017-07-27T04:45:22.342Z,99.9
2017-07-27T04:46:29.490Z,99.9
2017-07-27T04:47:37.217Z,99.9
2017-07-27T04:48:44.693Z,99.9
2017-07-27T04:49:52.167Z,99.9
2017-07-27T04:50:59.309Z,99.9
2017-07-27T04:52:06.787Z,99.9
2017-07-27T04:53:13.932Z,99.9
2017-07-27T04:54:21.413Z,99.9
2017-07-27T04:55:28.889Z,99.9
2017-07-27T04:56:36.368Z,99.9
2017-07-27T04:57:44.091Z,99.9
2017-07-27T04:58:51.241Z,99.9
2017-07-27T04:59:58.742Z,99.9
2017-07-27T05:01:06.221Z,99.9
2017-07-27T05:02:13.703Z,99.9
2017-07-27T05:03:21.436Z,99.9
2017-07-27T05:04:28.916Z,99.9
2017-07-27T05:05:36.391Z,99.9
2017-07-27T05:06:43.872Z,99.9
2017-07-27T05:07:51.356Z,99.9
2017-07-27T05:08:59.080Z,99.9
2017-07-27T05:10:06.577Z,99.9
2017-07-27T05:11:13.727Z,99.9
2017-07-27T05:12:21.206Z,99.9
2017-07-27T05:13:28.348Z,99.9
2017-07-27T05:14:36.072Z,99.9
2017-07-27T05:15:43.227Z,99.9
2017-07-27T05:16:50.701Z,99.9
2017-07-27T05:17:58.179Z,99.9
2017-07-27T05:19:05.658Z,99.9
2017-07-27T05:20:12.743Z,99.9
2017-07-27T05:21:20.218Z,99.9
2017-07-27T05:22:27.699Z,99.9
2017-07-27T05:23:35.175Z,99.9
2017-07-27T05:24:42.650Z,99.9
2017-07-27T05:25:50.427Z,99.9
2017-07-27T05:26:57.584Z,99.9
2017-07-27T05:28:04.730Z,99.9
2017-07-27T05:29:12.207Z,99.9
2017-07-27T05:30:19.361Z,99.9
2017-07-27T05:31:27.087Z,99.9
2017-07-27T05:32:34.570Z,99.9
2017-07-27T05:33:42.045Z,99.9
2017-07-27T05:34:49.196Z,99.9
2017-07-27T05:35:56.678Z,99.9
2017-07-27T05:37:04.460Z,99.9
2017-07-27T05:38:11.935Z,99.9
2017-07-27T05:39:19.414Z,99.9
2017-07-27T05:40:26.897Z,99.9
2017-07-27T05:41:34.374Z,99.9
2017-07-27T05:42:41.522Z,99.9
2017-07-27T05:43:48.671Z,99.9
2017-07-27T05:44:55.843Z,99.9
2017-07-27T05:46:03.325Z,99.9
2017-07-27T05:47:11.048Z,99.9
2017-07-27T05:48:18.526Z,99.9
2017-07-27T05:49:25.679Z,99.9
2017-07-27T05:50:32.830Z,99.9
2017-07-27T05:51:39.975Z,99.9
2017-07-27T05:52:47.473Z,99.9
2017-07-27T05:53:54.618Z,99.9
2017-07-27T05:55:02.099Z,99.9
2017-07-27T05:56:09.573Z,99.9
2017-07-27T05:57:16.714Z,99.9
2017-07-27T05:58:24.210Z,99.9
2017-07-27T05:59:31.690Z,99.9
2017-07-27T06:00:38.841Z,99.9
2017-07-27T06:01:46.318Z,99.9
2017-07-27T06:02:53.793Z,99.9
2017-07-27T06:04:01.572Z,99.9
2017-07-27T06:05:09.061Z,99.9
2017-07-27T06:06:16.542Z,99.9
2017-07-27T06:07:23.685Z,99.9
2017-07-27T06:08:31.163Z,99.9
2017-07-27T06:09:38.947Z,99.9
2017-07-27T06:10:46.429Z,99.9
2017-07-27T06:11:53.907Z,99.9
2017-07-27T06:13:01.062Z,99.9
2017-07-27T06:14:08.530Z,99.9
2017-07-27T06:15:16.261Z,99.9
2017-07-27T06:16:23.745Z,99.9
2017-07-27T06:17:31.222Z,99.9
2017-07-27T06:18:38.705Z,99.9
2017-07-27T06:19:46.185Z,99.9
2017-07-27T06:20:53.910Z,99.9
2017-07-27T06:22:01.062Z,99.9
2017-07-27T06:23:08.546Z,99.9
2017-07-27T06:24:15.698Z,99.9
2017-07-27T06:25:23.179Z,99.9
2017-07-27T06:26:30.326Z,99.9
2017-07-27T06:27:37.804Z,99.9
2017-07-27T06:28:45.285Z,99.9
2017-07-27T06:29:52.767Z,99.9
2017-07-27T06:30:59.592Z,99.9
2017-07-27T06:32:07.323Z,99.9
2017-07-27T06:33:14.797Z,99.9
2017-07-27T06:34:22.275Z,99.9
2017-07-27T06:35:29.786Z,99.9
2017-07-27T06:36:37.267Z,99.9
2017-07-27T06:37:44.715Z,99.9
2017-07-27T06:38:52.201Z,99.9
2017-07-27T06:39:59.680Z,99.9
2017-07-27T06:41:07.153Z,99.9
2017-07-27T06:42:14.630Z,99.9
2017-07-27T06:43:22.461Z,99.9
2017-07-27T06:44:29.944Z,99.9
2017-07-27T06:45:37.421Z,99.9
2017-07-27T06:46:44.899Z,99.9
2017-07-27T06:47:52.378Z,99.9
2017-07-27T06:49:00.206Z,99.9
2017-07-27T06:50:07.684Z,99.9
2017-07-27T06:51:14.836Z,99.9
2017-07-27T06:52:22.327Z,99.9
2017-07-27T06:53:29.807Z,99.9
2017-07-27T06:54:37.638Z,99.9
2017-07-27T06:55:45.116Z,99.9
2017-07-27T06:56:52.600Z,99.9
2017-07-27T06:58:00.080Z,99.9
2017-07-27T06:59:07.230Z,99.9
2017-07-27T07:00:15.059Z,99.9
2017-07-27T07:01:22.538Z,99.9
2017-07-27T07:02:30.013Z,99.9
2017-07-27T07:03:37.157Z,99.9
2017-07-27T07:04:44.302Z,99.9
2017-07-27T07:05:51.704Z,99.9
2017-07-27T07:06:58.852Z,99.9
2017-07-27T07:08:06.000Z,99.9
2017-07-27T07:09:12.822Z,99.9
2017-07-27T07:10:19.970Z,99.9
2017-07-27T07:11:27.753Z,99.9
2017-07-27T07:12:35.222Z,99.9
2017-07-27T07:13:42.699Z,99.9
2017-07-27T07:14:50.173Z,99.9
2017-07-27T07:15:57.656Z,99.9
2017-07-27T07:17:05.441Z,99.9
2017-07-27T07:18:12.988Z,99.9
2017-07-27T07:19:20.472Z,99.9
2017-07-27T07:20:27.979Z,99.9
2017-07-27T07:21:35.459Z,99.9
2017-07-27T07:22:42.969Z,99.9
2017-07-27T07:23:50.701Z,99.9
2017-07-27T07:24:58.173Z,99.9
2017-07-27T07:26:05.652Z,99.9
2017-07-27T07:27:12.800Z,99.9
2017-07-27T07:28:20.279Z,99.9
2017-07-27T07:29:28.058Z,99.9
2017-07-27T07:30:35.534Z,99.9
2017-07-27T07:31:43.016Z,99.9
2017-07-27T07:32:50.501Z,99.9
2017-07-27T07:33:57.988Z,99.9
2017-07-27T07:35:05.820Z,99.9
2017-07-27T07:36:13.298Z,99.9
2017-07-27T07:37:20.775Z,99.9
2017-07-27T07:38:28.255Z,99.9
2017-07-27T07:39:35.747Z,99.9
2017-07-27T07:40:43.583Z,99.9
2017-07-27T07:41:50.753Z,99.9
2017-07-27T07:42:58.242Z,99.9
2017-07-27T07:44:05.721Z,99.9
2017-07-27T07:45:12.881Z,99.9
2017-07-27T07:46:20.702Z,99.9
2017-07-27T07:47:28.175Z,99.9
2017-07-27T07:48:35.653Z,99.9
2017-07-27T07:49:43.130Z,99.9
2017-07-27T07:50:50.279Z,99.9
2017-07-27T07:51:58.110Z,99.9
2017-07-27T07:53:05.604Z,99.9
2017-07-27T07:54:13.081Z,99.9
2017-07-27T07:55:20.228Z,99.9
2017-07-27T07:56:27.785Z,99.9
2017-07-27T07:57:35.368Z,99.9
2017-07-27T07:58:42.858Z,99.9
2017-07-27T07:59:50.339Z,99.9
2017-07-27T08:00:57.813Z,99.9
2017-07-27T08:02:05.293Z,99.9
2017-07-27T08:03:12.369Z,99.9
2017-07-27T08:04:19.845Z,99.9
2017-07-27T08:05:27.012Z,99.9
2017-07-27T08:06:34.490Z,99.9
2017-07-27T08:07:41.975Z,99.9
2017-07-27T08:08:49.554Z,99.9
2017-07-27T08:09:56.702Z,99.9
2017-07-27T08:11:04.181Z,99.9
2017-07-27T08:12:11.658Z,99.9
2017-07-27T08:13:19.133Z,99.9
2017-07-27T08:14:26.918Z,99.9
2017-07-27T08:15:34.399Z,99.9
2017-07-27T08:16:41.885Z,99.9
2017-07-27T08:17:49.375Z,99.9
2017-07-27T08:18:56.853Z,99.9
2017-07-27T08:20:04.679Z,99.9
2017-07-27T08:21:12.157Z,99.9
2017-07-27T08:22:19.636Z,99.9
2017-07-27T08:23:26.792Z,99.9
2017-07-27T08:24:34.274Z,99.9
2017-07-27T08:25:41.543Z,99.9
2017-07-27T08:26:48.698Z,99.9
2017-07-27T08:27:56.171Z,99.9
2017-07-27T08:29:03.648Z,99.9
2017-07-27T08:30:11.143Z,99.9
2017-07-27T08:31:18.389Z,99.9
2017-07-27T08:32:25.529Z,99.9
2017-07-27T08:33:33.010Z,99.9
2017-07-27T08:34:40.492Z,99.9
2017-07-27T08:35:47.967Z,99.9
2017-07-27T08:36:55.821Z,99.9
2017-07-27T08:38:03.508Z,99.9
2017-07-27T08:39:11.011Z,99.9
2017-07-27T08:40:18.525Z,99.9
2017-07-27T08:41:26.011Z,99.9
2017-07-27T08:42:33.837Z,99.9
2017-07-27T08:43:41.316Z,99.9
2017-07-27T08:44:48.799Z,99.9
2017-07-27T08:45:55.976Z,99.9
2017-07-27T08:47:03.458Z,99.9
2017-07-27T08:48:10.937Z,99.9
2017-07-27T08:49:18.436Z,99.9
2017-07-27T08:50:26.217Z,99.9
2017-07-27T08:51:33.696Z,99.9
2017-07-27T08:52:41.179Z,99.9
2017-07-27T08:53:48.909Z,99.9
2017-07-27T08:54:56.380Z,99.9
2017-07-27T08:56:03.886Z,99.9
2017-07-27T08:57:11.372Z,99.9
2017-07-27T08:58:18.846Z,99.9
2017-07-27T08:59:26.323Z,99.9
2017-07-27T09:00:33.800Z,99.9
2017-07-27T09:01:41.637Z,99.9
2017-07-27T09:02:49.120Z,99.7
2017-07-27T09:03:56.605Z,99.9
2017-07-27T09:05:04.085Z,99.9
2017-07-27T09:06:11.566Z,99.9
2017-07-27T09:07:19.397Z,99.9
2017-07-27T09:08:26.876Z,99.2
2017-07-27T09:09:34.353Z,98.3
2017-07-27T09:10:41.507Z,98.6
2017-07-27T09:11:48.986Z,99.5
2017-07-27T09:12:56.810Z,99.5
2017-07-27T09:14:04.297Z,99.5
2017-07-27T09:15:11.777Z,99.6
2017-07-27T09:16:19.264Z,99.2
2017-07-27T09:17:26.746Z,98.9
2017-07-27T09:18:34.577Z,99.2
2017-07-27T09:19:42.056Z,99.4
2017-07-27T09:20:49.539Z,99.1
2017-07-27T09:21:57.013Z,98.4
2017-07-27T09:23:04.493Z,98.6
2017-07-27T09:24:12.223Z,98.5
2017-07-27T09:25:19.704Z,98.8
2017-07-27T09:26:26.864Z,98.4
2017-07-27T09:27:34.344Z,98.7
2017-07-27T09:28:41.821Z,98.6
2017-07-27T09:29:49.602Z,98.8
2017-07-27T09:30:57.082Z,97.9
2017-07-27T09:32:04.574Z,98.6
2017-07-27T09:33:12.055Z,99.1
2017-07-27T09:34:19.531Z,97.2
2017-07-27T09:35:27.360Z,98.1
2017-07-27T09:36:34.838Z,98
2017-07-27T09:37:42.318Z,97.6
2017-07-27T09:38:49.810Z,98
2017-07-27T09:39:57.290Z,98.4
2017-07-27T09:41:05.118Z,96.7
2017-07-27T09:42:12.266Z,96.9
2017-07-27T09:43:19.757Z,96.8
2017-07-27T09:44:27.240Z,95.9
2017-07-27T09:45:34.727Z,95.7
2017-07-27T09:46:42.228Z,96.2
2017-07-27T09:47:49.393Z,96.6
2017-07-27T09:48:56.868Z,96.7
2017-07-27T09:50:04.029Z,97.4
2017-07-27T09:51:11.511Z,96.6
2017-07-27T09:52:19.084Z,97
2017-07-27T09:53:26.559Z,96.3
2017-07-27T09:54:34.041Z,97
2017-07-27T09:55:41.531Z,97.1
2017-07-27T09:56:48.681Z,96.3
2017-07-27T09:57:55.955Z,96.6
2017-07-27T09:59:03.442Z,96.6
2017-07-27T10:00:10.941Z,96.7
2017-07-27T10:01:18.424Z,96.6
2017-07-27T10:02:25.903Z,96
2017-07-27T10:03:33.401Z,96.1
2017-07-27T10:04:40.886Z,96.6
2017-07-27T10:05:48.366Z,96.2
2017-07-27T10:06:55.847Z,96.6
2017-07-27T10:08:03.329Z,96.7
2017-07-27T10:09:10.577Z,96.6
2017-07-27T10:10:18.055Z,96.7
2017-07-27T10:11:25.204Z,96.8
2017-07-27T10:12:32.695Z,97
2017-07-27T10:13:40.178Z,96.5
2017-07-27T10:14:47.636Z,96.6
2017-07-27T10:15:55.115Z,97.2
2017-07-27T10:17:02.606Z,97
2017-07-27T10:18:10.094Z,97.2
2017-07-27T10:19:17.579Z,97.1
2017-07-27T10:20:25.085Z,97
2017-07-27T10:21:32.568Z,97.5
2017-07-27T10:22:40.050Z,97.4
2017-07-27T10:23:47.547Z,97.5
2017-07-27T10:24:55.026Z,97.4
2017-07-27T10:26:02.859Z,97.5
2017-07-27T10:27:10.338Z,97
2017-07-27T10:28:17.817Z,97.2
2017-07-27T10:29:25.293Z,96.9
2017-07-27T10:30:32.774Z,96.9
2017-07-27T10:31:40.609Z,96.7
2017-07-27T10:32:48.090Z,96.8
2017-07-27T10:33:55.239Z,96.5
2017-07-27T10:35:02.718Z,96.1
2017-07-27T10:36:10.192Z,96.4
2017-07-27T10:37:18.022Z,96.2
2017-07-27T10:38:25.498Z,95.8
2017-07-27T10:39:32.978Z,96
2017-07-27T10:40:40.458Z,96
2017-07-27T10:41:47.943Z,96.4
2017-07-27T10:42:55.425Z,96.1
2017-07-27T10:44:03.153Z,95.6
2017-07-27T10:45:10.640Z,95.8
2017-07-27T10:46:18.123Z,95.8
2017-07-27T10:47:25.606Z,95.5
2017-07-27T10:48:33.105Z,96
2017-07-27T10:49:40.574Z,96
2017-07-27T10:50:48.049Z,95.5
2017-07-27T10:51:55.531Z,95.8
2017-07-27T10:53:03.010Z,95.6
2017-07-27T10:54:10.488Z,94.7
2017-07-27T10:55:17.962Z,94.9
2017-07-27T10:56:25.461Z,94.5
2017-07-27T10:57:32.945Z,94.9
2017-07-27T10:58:40.427Z,95.2
2017-07-27T10:59:47.918Z,94.8
2017-07-27T11:00:55.704Z,95
2017-07-27T11:02:03.185Z,94.5
2017-07-27T11:03:10.669Z,95.1
2017-07-27T11:04:18.154Z,95.5
2017-07-27T11:05:25.639Z,95
2017-07-27T11:06:33.471Z,95
2017-07-27T11:07:40.961Z,94.6
2017-07-27T11:08:48.462Z,94.2
2017-07-27T11:09:55.945Z,94
2017-07-27T11:11:03.431Z,93.9
2017-07-27T11:12:11.266Z,94
2017-07-27T11:13:18.750Z,94.6
2017-07-27T11:14:26.235Z,94.3
2017-07-27T11:15:33.722Z,94.6
2017-07-27T11:16:41.202Z,94.4
2017-07-27T11:17:49.037Z,94.6
2017-07-27T11:18:56.528Z,94
2017-07-27T11:20:04.009Z,93.7
2017-07-27T11:21:11.496Z,94.4
2017-07-27T11:22:18.986Z,94.4
2017-07-27T11:23:26.825Z,94
2017-07-27T11:24:34.307Z,93.7
2017-07-27T11:25:41.457Z,93.8
2017-07-27T11:26:48.938Z,94.1
2017-07-27T11:27:56.420Z,93.8
2017-07-27T11:29:04.243Z,93.9
2017-07-27T11:30:11.722Z,94
2017-07-27T11:31:19.207Z,94.1
2017-07-27T11:32:26.686Z,94
2017-07-27T11:33:34.180Z,94.1
2017-07-27T11:34:41.663Z,94
2017-07-27T11:35:49.145Z,94.3
2017-07-27T11:36:56.629Z,94.4
2017-07-27T11:38:04.493Z,94
2017-07-27T11:39:11.976Z,94.1
2017-07-27T11:40:19.463Z,93.7
2017-07-27T11:41:26.949Z,94.3
2017-07-27T11:42:34.430Z,93.9
2017-07-27T11:43:41.921Z,93.7
2017-07-27T11:44:49.651Z,93.5
2017-07-27T11:45:57.134Z,93.4
2017-07-27T11:47:04.617Z,93.8
2017-07-27T11:48:12.100Z,94.3
2017-07-27T11:49:19.581Z,93.9
2017-07-27T11:50:27.359Z,94.1
2017-07-27T11:51:34.514Z,94.2
2017-07-27T11:52:42.008Z,93.6
2017-07-27T11:53:49.492Z,93.8
2017-07-27T11:54:56.974Z,93.7
2017-07-27T11:56:04.454Z,92.9
2017-07-27T11:57:11.713Z,93.2
2017-07-27T11:58:19.204Z,93.5
2017-07-27T11:59:26.685Z,93.6
2017-07-27T12:00:34.165Z,92.5
2017-07-27T12:01:41.331Z,93.8
2017-07-27T12:02:49.113Z,92.9
2017-07-27T12:03:56.266Z,92.4
2017-07-27T12:05:03.754Z,92.9
2017-07-27T12:06:11.233Z,92.2
2017-07-27T12:07:18.714Z,92.9
2017-07-27T12:08:26.300Z,92.9
2017-07-27T12:09:33.792Z,92.3
2017-07-27T12:10:41.280Z,92.6
2017-07-27T12:11:48.767Z,91.7
2017-07-27T12:12:55.926Z,92.6
2017-07-27T12:14:03.507Z,92
2017-07-27T12:15:10.670Z,92
2017-07-27T12:16:18.151Z,92
2017-07-27T12:17:25.630Z,92.2
2017-07-27T12:18:32.787Z,90.9
2017-07-27T12:19:40.518Z,91.7
2017-07-27T12:20:48.002Z,90.1
2017-07-27T12:21:55.149Z,90.4
2017-07-27T12:23:02.292Z,89.9
2017-07-27T12:24:09.782Z,90.6
2017-07-27T12:25:17.365Z,89.4
2017-07-27T12:26:24.850Z,89.4
2017-07-27T12:27:32.331Z,90.1
2017-07-27T12:28:39.816Z,90
2017-07-27T12:29:47.297Z,89.3
2017-07-27T12:30:55.035Z,90.8
2017-07-27T12:32:02.527Z,89.9
2017-07-27T12:33:10.013Z,88.1
2017-07-27T12:34:17.493Z,89.6
2017-07-27T12:35:24.972Z,89.7
2017-07-27T12:36:32.804Z,86.4
2017-07-27T12:39:02.389Z,87.7
2017-07-27T12:40:09.545Z,85.9
2017-07-27T12:41:17.031Z,86
2017-07-27T12:42:24.873Z,87.7
2017-07-27T12:43:32.358Z,87.3
2017-07-27T12:44:39.840Z,86.5
2017-07-27T12:45:47.326Z,86.3
2017-07-27T12:46:54.803Z,83.6
2017-07-27T12:48:02.592Z,85.8
2017-07-27T12:49:09.745Z,84.6
2017-07-27T12:50:17.228Z,83.8
2017-07-27T12:51:24.708Z,83.1
2017-07-27T12:52:32.210Z,83.8
2017-07-27T12:53:40.000Z,83.2
2017-07-27T12:54:47.166Z,83.2
2017-07-27T12:55:54.661Z,84.9
2017-07-27T12:57:02.144Z,87
2017-07-27T12:58:09.304Z,82.9
2017-07-27T12:59:17.383Z,80.7
2017-07-27T13:00:24.892Z,82.2
2017-07-27T13:01:32.377Z,80.6
2017-07-27T13:02:39.869Z,79.8
2017-07-27T13:03:47.371Z,81.1
2017-07-27T13:04:55.208Z,78.6
2017-07-27T13:06:02.695Z,77.7
2017-07-27T13:07:10.191Z,80
2017-07-27T13:08:17.674Z,80
2017-07-27T13:09:25.160Z,82.6
2017-07-27T13:10:32.949Z,82
2017-07-27T13:11:40.109Z,78.4
2017-07-27T13:12:47.601Z,80.9
2017-07-27T13:13:55.089Z,78.9
2017-07-27T13:15:02.580Z,80.1
2017-07-27T13:16:10.420Z,80.9
2017-07-27T13:17:17.919Z,81.2
2017-07-27T13:18:25.408Z,77.6
2017-07-27T13:19:32.892Z,77.6
2017-07-27T13:20:39.706Z,77.1
2017-07-27T13:21:47.544Z,78
2017-07-27T13:22:55.025Z,74.2
2017-07-27T13:24:02.511Z,74.9
2017-07-27T13:25:10.000Z,75
2017-07-27T13:26:17.487Z,74.4
2017-07-27T13:27:25.238Z,76.1
2017-07-27T13:28:32.726Z,74.7
2017-07-27T13:29:40.217Z,78.1
2017-07-27T13:30:47.704Z,80.6
2017-07-27T13:31:55.192Z,78.5
2017-07-27T13:33:02.682Z,81
2017-07-27T13:34:09.835Z,77.5
2017-07-27T13:35:17.320Z,78.6
2017-07-27T13:36:24.476Z,74.7
2017-07-27T13:37:31.634Z,74.9
2017-07-27T13:38:39.151Z,76.3
2017-07-27T13:39:46.631Z,75.3
2017-07-27T13:40:54.118Z,76
2017-07-27T13:42:01.271Z,77.7
2017-07-27T13:43:08.756Z,76.6
2017-07-27T13:44:16.244Z,76.3
2017-07-27T13:45:24.001Z,77.5
2017-07-27T13:46:31.507Z,78.3
2017-07-27T13:47:39.030Z,76.7
2017-07-27T13:48:46.524Z,78.6
2017-07-27T13:49:54.011Z,77
2017-07-27T13:51:01.089Z,75.6
2017-07-27T13:52:08.572Z,78.8
2017-07-27T13:53:16.061Z,77.4
2017-07-27T13:54:23.220Z,77.5
2017-07-27T13:55:30.714Z,77.1
2017-07-27T13:56:38.455Z,77.2
2017-07-27T13:57:45.945Z,76.9
2017-07-27T13:58:53.432Z,79.1
2017-07-27T14:00:00.923Z,76.6
2017-07-27T14:01:08.415Z,77.1
2017-07-27T14:02:15.892Z,78.3
2017-07-27T14:03:23.383Z,77.9
2017-07-27T14:04:30.536Z,76.7
2017-07-27T14:05:38.034Z,76.8
2017-07-27T14:06:45.524Z,74.5
2017-07-27T14:07:53.029Z,75.3
2017-07-27T14:09:00.518Z,75.2
2017-07-27T14:10:07.677Z,77.6
2017-07-27T14:11:15.178Z,76.6
2017-07-27T14:12:22.674Z,77.8
2017-07-27T14:13:30.516Z,76.9
2017-07-27T14:16:00.081Z,77.8
2017-07-27T14:17:07.573Z,78.2
2017-07-27T14:18:15.062Z,78.8
2017-07-27T14:19:22.902Z,77.2
2017-07-27T14:20:30.059Z,77.3
2017-07-27T14:21:36.902Z,78.6
2017-07-27T14:22:44.387Z,79.2
2017-07-27T14:23:51.879Z,78.1
2017-07-27T14:24:59.365Z,76.8
2017-07-27T14:26:06.853Z,75.6
2017-07-27T14:27:13.687Z,77.1
2017-07-27T14:28:21.097Z,76.5
2017-07-27T14:29:28.591Z,76.7
2017-07-27T14:30:36.081Z,75.3
2017-07-27T14:31:43.576Z,76.3
2017-07-27T14:32:50.741Z,77.7
2017-07-27T14:33:58.478Z,75.6
2017-07-27T14:36:28.044Z,77.7
2017-07-27T14:37:35.202Z,76.5
2017-07-27T14:38:42.690Z,76.2
2017-07-27T14:39:49.850Z,78.2
2017-07-27T14:40:57.335Z,78.1
2017-07-27T14:42:04.486Z,77.7
2017-07-27T14:43:11.966Z,77.7
2017-07-27T14:44:19.452Z,77.7
2017-07-27T14:45:26.713Z,78.4
2017-07-27T14:46:34.205Z,79.4
2017-07-27T14:47:41.385Z,78.9
2017-07-27T14:48:48.880Z,79.2
2017-07-27T14:49:56.370Z,79.4
2017-07-27T14:51:03.785Z,78.5
2017-07-27T14:52:11.274Z,79.6
2017-07-27T14:53:18.759Z,79.9
2017-07-27T14:54:26.242Z,78.3
2017-07-27T14:55:33.415Z,78.4
2017-07-27T14:56:41.149Z,79.3
2017-07-27T14:57:48.313Z,78
2017-07-27T14:58:55.822Z,78.7
2017-07-27T15:00:03.307Z,79.8
2017-07-27T15:01:10.798Z,78.4
2017-07-27T15:02:18.327Z,77.7
2017-07-27T15:03:25.816Z,78.3
2017-07-27T15:04:33.308Z,78
2017-07-27T15:05:40.798Z,79